Time;durP1;ratioP1;P1;durP2;ratioP2;P2;SDS_P1;SDS_P2;PMS_P1;PMS_P2;Temp;Humidity;BMP_temperature;BMP_pressure;BME280_temperature;BME280_humidity;BME280_pressure;Samples;Min_cycle;Max_cycle;Signal;HPM_P1;HPM_P2
2022/08/14 00:01:47;;;;;;;5.40;5.00;;;;;;;;;;5034302;28;20711;-59
2022/08/14 00:04:13;;;;;;;5.53;5.13;;;;;;;;;;5044422;28;20177;-59
2022/08/14 00:06:39;;;;;;;6.17;5.57;;;;;;;;;;5050399;28;20180;-58
2022/08/14 00:09:05;;;;;;;5.83;5.33;;;;;;;;;;5050803;28;20627;-59
2022/08/14 00:11:31;;;;;;;6.13;5.57;;;;;;;;;;5029464;28;20199;-59
2022/08/14 00:13:57;;;;;;;6.17;5.57;;;;;;;;;;5046239;28;20631;-59
2022/08/14 00:16:23;;;;;;;5.77;5.30;;;;;;;;;;5047487;28;20205;-59
2022/08/14 00:18:49;;;;;;;5.47;5.00;;;;;;;;;;5048528;28;20205;-59
2022/08/14 00:21:15;;;;;;;5.80;5.30;;;;;;;;;;5056498;28;20189;-58
2022/08/14 00:23:42;;;;;;;6.00;5.33;;;;;;;;;;5044483;28;20646;-58
2022/08/14 00:26:08;;;;;;;6.00;5.50;;;;;;;;;;5045091;28;20314;-58
2022/08/14 00:28:35;;;;;;;5.97;5.50;;;;;;;;;;5047286;28;20188;-58
2022/08/14 00:31:01;;;;;;;5.70;5.17;;;;;;;;;;5047358;28;20521;-59
2022/08/14 00:33:27;;;;;;;7.20;5.63;;;;;;;;;;5050458;28;20250;-58
2022/08/14 00:35:54;;;;;;;6.50;5.83;;;;;;;;;;5043217;28;20185;-62
2022/08/14 00:38:21;;;;;;;7.20;5.17;;;;;;;;;;5050635;28;20543;-58
2022/08/14 00:40:47;;;;;;;5.93;5.43;;;;;;;;;;5048075;28;20158;-59
2022/08/14 00:43:14;;;;;;;5.80;5.33;;;;;;;;;;5027058;28;20195;-58
2022/08/14 00:45:40;;;;;;;5.53;5.13;;;;;;;;;;5048003;28;20537;-59
2022/08/14 00:48:06;;;;;;;6.23;5.43;;;;;;;;;;5057655;28;20192;-58
2022/08/14 00:50:33;;;;;;;5.97;5.33;;;;;;;;;;5041466;28;20190;-59
2022/08/14 00:53:00;;;;;;;7.03;5.20;;;;;;;;;;5028005;28;20625;-58
2022/08/14 00:55:29;;;;;;;5.50;5.10;;;;;;;;;;5034516;28;20285;-57
2022/08/14 01:00:43;;;;;;;5.87;5.47;;;;;;;;;;5047001;28;20626;-59
2022/08/14 01:03:09;;;;;;;6.00;5.50;;;;;;;;;;5053233;28;20320;-58
2022/08/14 01:05:35;;;;;;;5.40;5.00;;;;;;;;;;5037121;28;20284;-59
2022/08/14 01:08:01;;;;;;;5.73;5.23;;;;;;;;;;5060269;28;20212;-59
2022/08/14 01:13:15;;;;;;;6.07;5.57;;;;;;;;;;5049391;28;20199;-58
2022/08/14 01:15:46;;;;;;;6.13;5.57;;;;;;;;;;5045505;28;20193;-58
2022/08/14 01:21:10;;;;;;;5.60;5.10;;;;;;;;;;5050223;28;20327;-59
2022/08/14 01:23:38;;;;;;;5.90;5.33;;;;;;;;;;5051633;28;20211;-57
2022/08/14 01:26:04;;;;;;;5.27;4.87;;;;;;;;;;5051250;28;20256;-58
2022/08/14 01:28:32;;;;;;;5.30;4.90;;;;;;;;;;5041004;28;20188;-58
2022/08/14 01:30:58;;;;;;;5.90;5.30;;;;;;;;;;5051020;28;20260;-58
2022/08/14 01:33:27;;;;;;;6.30;5.77;;;;;;;;;;5047584;28;20178;-57
2022/08/14 01:35:56;;;;;;;6.00;5.40;;;;;;;;;;5048207;28;20219;-56
2022/08/14 01:38:23;;;;;;;5.80;5.30;;;;;;;;;;5052674;28;20657;-59
2022/08/14 01:40:49;;;;;;;5.60;5.20;;;;;;;;;;5068188;28;20690;-58
2022/08/14 01:43:16;;;;;;;6.00;5.50;;;;;;;;;;5050132;28;20174;-58
2022/08/14 01:45:43;;;;;;;6.27;5.67;;;;;;;;;;5032579;28;20536;-59
2022/08/14 01:48:10;;;;;;;5.93;5.43;;;;;;;;;;5054168;28;21011;-58
2022/08/14 01:50:36;;;;;;;6.03;5.43;;;;;;;;;;5038091;28;20176;-59
2022/08/14 01:53:02;;;;;;;6.17;5.57;;;;;;;;;;5048841;28;20695;-59
2022/08/14 01:55:30;;;;;;;5.70;5.20;;;;;;;;;;5030664;28;20170;-58
2022/08/14 01:57:56;;;;;;;5.67;5.27;;;;;;;;;;5044681;28;20194;-56
2022/08/14 02:00:23;;;;;;;6.67;6.17;;;;;;;;;;5037309;28;20174;-58
2022/08/14 02:02:49;;;;;;;6.03;5.63;;;;;;;;;;5049736;28;20185;-57
2022/08/14 02:05:16;;;;;;;5.47;5.03;;;;;;;;;;5048916;28;20718;-58
2022/08/14 02:07:45;;;;;;;8.00;5.50;;;;;;;;;;5052894;28;20190;-59
2022/08/14 02:10:12;;;;;;;5.50;5.10;;;;;;;;;;5052762;28;20636;-58
2022/08/14 02:12:39;;;;;;;5.77;5.37;;;;;;;;;;5044065;28;20188;-59
2022/08/14 02:15:08;;;;;;;6.43;5.93;;;;;;;;;;5047673;28;20214;-58
2022/08/14 02:17:34;;;;;;;6.37;5.93;;;;;;;;;;5042088;28;20308;-58
2022/08/14 02:20:00;;;;;;;6.17;5.57;;;;;;;;;;5045682;28;20174;-57
2022/08/14 02:22:27;;;;;;;6.47;5.97;;;;;;;;;;5056588;28;20411;-58
2022/08/14 02:24:53;;;;;;;6.17;5.67;;;;;;;;;;5053129;28;20243;-58
2022/08/14 02:27:19;;;;;;;5.83;5.33;;;;;;;;;;5054938;28;20191;-58
2022/08/14 02:29:46;;;;;;;6.87;5.47;;;;;;;;;;5050881;28;20181;-58
2022/08/14 02:32:15;;;;;;;6.57;6.07;;;;;;;;;;5048844;28;20213;-58
2022/08/14 02:34:41;;;;;;;6.40;5.90;;;;;;;;;;5047264;28;20664;-58
2022/08/14 02:37:08;;;;;;;6.20;5.80;;;;;;;;;;5048781;28;20249;-58
2022/08/14 02:39:36;;;;;;;6.63;5.93;;;;;;;;;;5037636;28;20770;-57
2022/08/14 02:42:02;;;;;;;6.87;6.30;;;;;;;;;;5040135;28;20210;-58
2022/08/14 02:44:28;;;;;;;6.17;5.57;;;;;;;;;;5034353;28;20179;-58
2022/08/14 02:46:56;;;;;;;6.43;5.93;;;;;;;;;;5052432;28;20232;-58
2022/08/14 02:49:25;;;;;;;7.10;6.60;;;;;;;;;;5051722;28;20630;-59
2022/08/14 02:51:51;;;;;;;7.00;6.37;;;;;;;;;;5046319;28;20217;-58
2022/08/14 02:54:25;;;;;;;7.27;6.67;;;;;;;;;;5046550;28;20665;-58
2022/08/14 02:56:53;;;;;;;6.83;6.27;;;;;;;;;;5045553;28;20621;-56
2022/08/14 02:59:19;;;;;;;6.73;6.23;;;;;;;;;;5051384;28;20600;-58
2022/08/14 03:01:46;;;;;;;6.90;6.40;;;;;;;;;;5066266;28;20169;-57
2022/08/14 03:04:12;;;;;;;6.90;6.30;;;;;;;;;;5053803;28;20684;-58
2022/08/14 03:06:42;;;;;;;7.50;6.70;;;;;;;;;;5030144;28;20191;-58
2022/08/14 03:09:08;;;;;;;7.87;7.17;;;;;;;;;;5051082;28;20189;-59
2022/08/14 03:11:35;;;;;;;7.30;6.73;;;;;;;;;;5029649;28;20231;-59
2022/08/14 03:14:01;;;;;;;7.47;6.77;;;;;;;;;;5046692;28;20203;-58
2022/08/14 03:16:34;;;;;;;9.40;8.60;;;;;;;;;;5047786;28;20200;-59
2022/08/14 03:19:00;;;;;;;7.00;6.30;;;;;;;;;;5045575;28;20731;-58
2022/08/14 03:21:28;;;;;;;7.03;6.53;;;;;;;;;;5045696;28;20663;-59
2022/08/14 03:24:10;;;;;;;7.53;6.93;;;;;;;;;;5046343;28;20632;-59
2022/08/14 03:26:44;;;;;;;7.70;7.00;;;;;;;;;;5020938;28;20309;-59
2022/08/14 03:29:11;;;;;;;7.50;6.80;;;;;;;;;;5023285;28;20186;-59
2022/08/14 03:31:39;;;;;;;18.83;17.77;;;;;;;;;;5027507;28;20240;-59
2022/08/14 03:34:07;;;;;;;8.47;7.87;;;;;;;;;;5026292;28;20178;-59
2022/08/14 03:36:34;;;;;;;7.80;7.17;;;;;;;;;;5025200;28;20209;-59
2022/08/14 03:39:00;;;;;;;7.57;6.97;;;;;;;;;;5010798;28;20178;-59
2022/08/14 03:41:27;;;;;;;7.87;7.27;;;;;;;;;;5026872;28;20196;-59
2022/08/14 03:43:56;;;;;;;7.60;6.90;;;;;;;;;;5020213;28;20189;-59
2022/08/14 03:46:22;;;;;;;7.57;6.97;;;;;;;;;;5028862;28;20181;-58
2022/08/14 03:48:49;;;;;;;8.13;7.47;;;;;;;;;;5025375;28;20706;-59
2022/08/14 03:51:15;;;;;;;8.13;7.53;;;;;;;;;;5026846;28;20185;-59
2022/08/14 03:53:43;;;;;;;8.77;7.87;;;;;;;;;;5027263;28;20273;-58
2022/08/14 03:56:13;;;;;;;11.03;10.23;;;;;;;;;;5028845;28;20182;-59
2022/08/14 03:58:41;;;;;;;8.57;7.77;;;;;;;;;;5024983;28;20212;-57
2022/08/14 04:01:07;;;;;;;10.03;9.03;;;;;;;;;;5025852;28;20178;-59
2022/08/14 04:03:34;;;;;;;7.97;7.37;;;;;;;;;;5022933;28;20542;-59
2022/08/14 04:06:01;;;;;;;8.10;7.37;;;;;;;;;;5022876;28;20204;-59
2022/08/14 04:08:28;;;;;;;7.60;6.93;;;;;;;;;;5029172;28;20264;-58
2022/08/14 04:10:55;;;;;;;9.97;7.87;;;;;;;;;;5027630;28;20260;-59
2022/08/14 04:13:22;;;;;;;8.30;7.53;;;;;;;;;;5026767;28;20194;-57
2022/08/14 04:15:48;;;;;;;8.43;7.73;;;;;;;;;;5026064;28;20182;-59
2022/08/14 04:18:14;;;;;;;8.07;7.27;;;;;;;;;;5024293;28;20204;-59
2022/08/14 04:20:41;;;;;;;7.70;7.07;;;;;;;;;;5023696;28;20668;-59
2022/08/14 04:23:08;;;;;;;9.97;9.20;;;;;;;;;;5027147;28;20204;-58
2022/08/14 04:25:35;;;;;;;8.37;7.67;;;;;;;;;;5041294;28;20307;-59
2022/08/14 04:28:05;;;;;;;10.30;7.40;;;;;;;;;;5047572;28;20185;-59
2022/08/14 04:30:31;;;;;;;8.23;7.53;;;;;;;;;;5039327;28;20676;-56
2022/08/14 04:32:57;;;;;;;8.57;7.87;;;;;;;;;;5047048;28;20197;-59
2022/08/14 04:35:23;;;;;;;7.70;7.13;;;;;;;;;;5047463;28;20236;-59
2022/08/14 04:43:35;;;;;;;10.60;7.97;;;;;;;;;;5051781;28;20196;-59
2022/08/14 04:46:02;;;;;;;8.77;8.07;;;;;;;;;;5051358;28;20269;-59
2022/08/14 04:48:28;;;;;;;8.60;7.90;;;;;;;;;;5051918;28;20181;-58
2022/08/14 04:50:55;;;;;;;9.57;8.67;;;;;;;;;;5032048;28;20264;-59
2022/08/14 04:53:26;;;;;;;8.53;7.83;;;;;;;;;;5057823;28;20658;-59
2022/08/14 04:55:52;;;;;;;9.13;8.23;;;;;;;;;;5050781;28;20193;-57
2022/08/14 04:58:23;;;;;;;8.20;7.50;;;;;;;;;;5050031;28;20211;-59
2022/08/14 05:00:49;;;;;;;12.57;11.47;;;;;;;;;;5035332;28;20181;-59
2022/08/14 05:03:19;;;;;;;9.10;8.20;;;;;;;;;;5047547;28;20730;-59
2022/08/14 05:05:56;;;;;;;9.07;8.27;;;;;;;;;;5056581;28;20196;-59
2022/08/14 05:08:23;;;;;;;8.27;7.67;;;;;;;;;;5061266;28;20188;-59
2022/08/14 05:10:50;;;;;;;8.77;8.13;;;;;;;;;;5058580;28;20188;-58
2022/08/14 05:13:17;;;;;;;9.47;8.70;;;;;;;;;;5050698;28;20189;-59
2022/08/14 05:15:45;;;;;;;9.87;8.60;;;;;;;;;;5071093;28;20180;-59
2022/08/14 05:18:13;;;;;;;8.37;7.57;;;;;;;;;;5051332;28;20208;-59
2022/08/14 05:20:41;;;;;;;8.57;7.90;;;;;;;;;;5050807;28;20211;-58
2022/08/14 05:23:07;;;;;;;8.03;7.43;;;;;;;;;;5031974;28;20555;-59
2022/08/14 05:25:34;;;;;;;8.03;7.43;;;;;;;;;;5051234;28;20256;-59
2022/08/14 05:28:11;;;;;;;8.50;7.67;;;;;;;;;;5048117;28;20190;-59
2022/08/14 05:30:37;;;;;;;8.50;7.80;;;;;;;;;;5030944;28;20189;-59
2022/08/14 05:33:04;;;;;;;7.80;7.17;;;;;;;;;;5050145;28;20265;-59
2022/08/14 05:35:31;;;;;;;9.40;7.90;;;;;;;;;;5051480;28;20660;-59
2022/08/14 05:37:57;;;;;;;8.60;7.80;;;;;;;;;;5053235;28;20680;-59
2022/08/14 05:40:23;;;;;;;8.97;8.17;;;;;;;;;;5050661;28;20659;-59
2022/08/14 05:42:49;;;;;;;8.73;8.03;;;;;;;;;;5050307;28;20223;-57
2022/08/14 05:45:16;;;;;;;9.27;8.40;;;;;;;;;;5049696;28;20651;-59
2022/08/14 05:47:42;;;;;;;9.13;8.20;;;;;;;;;;5064729;28;20651;-58
2022/08/14 05:50:10;;;;;;;8.93;8.17;;;;;;;;;;5047906;28;20719;-58
2022/08/14 05:52:36;;;;;;;8.07;7.33;;;;;;;;;;5058413;28;20193;-59
2022/08/14 05:55:02;;;;;;;8.57;7.77;;;;;;;;;;5050934;28;20226;-59
2022/08/14 05:57:29;;;;;;;8.00;7.20;;;;;;;;;;5061045;28;20698;-58
2022/08/14 05:59:55;;;;;;;9.23;7.43;;;;;;;;;;5051428;28;20187;-57
2022/08/14 06:02:21;;;;;;;8.03;7.37;;;;;;;;;;5051738;28;20177;-59
2022/08/14 06:04:47;;;;;;;7.63;7.03;;;;;;;;;;5043356;28;20676;-59
2022/08/14 06:07:14;;;;;;;8.67;7.87;;;;;;;;;;5051821;28;20180;-59
2022/08/14 06:09:41;;;;;;;8.13;7.53;;;;;;;;;;5052902;28;20278;-59
2022/08/14 06:12:10;;;;;;;9.03;7.93;;;;;;;;;;5050703;28;20206;-59
2022/08/14 06:14:37;;;;;;;8.20;7.60;;;;;;;;;;5047337;28;20236;-59
2022/08/14 06:17:03;;;;;;;7.67;6.97;;;;;;;;;;5043827;28;20205;-60
2022/08/14 06:19:29;;;;;;;8.07;7.37;;;;;;;;;;5045266;28;20193;-59
2022/08/14 06:21:55;;;;;;;8.80;8.00;;;;;;;;;;5049684;28;20357;-59
2022/08/14 06:24:21;;;;;;;8.83;7.97;;;;;;;;;;5053694;28;20671;-59
2022/08/14 06:26:48;;;;;;;8.73;7.80;;;;;;;;;;5054985;28;20698;-59
2022/08/14 06:29:14;;;;;;;7.93;7.23;;;;;;;;;;5050513;28;20204;-59
2022/08/14 06:31:40;;;;;;;8.77;8.10;;;;;;;;;;5048854;28;20628;-56
2022/08/14 06:34:06;;;;;;;8.30;7.53;;;;;;;;;;5048530;28;20650;-59
2022/08/14 06:36:36;;;;;;;8.30;7.50;;;;;;;;;;5041440;28;20240;-59
2022/08/14 06:39:02;;;;;;;8.27;7.57;;;;;;;;;;5043072;28;20550;-58
2022/08/14 06:41:28;;;;;;;9.33;8.60;;;;;;;;;;5047023;28;20177;-59
2022/08/14 06:43:54;;;;;;;9.17;8.40;;;;;;;;;;5049101;28;20224;-58
2022/08/14 06:46:20;;;;;;;8.53;7.80;;;;;;;;;;5062780;28;20273;-58
2022/08/14 06:48:48;;;;;;;8.37;7.77;;;;;;;;;;5050457;28;20184;-59
2022/08/14 06:51:14;;;;;;;8.60;7.90;;;;;;;;;;5040385;28;20279;-60
2022/08/14 06:53:40;;;;;;;9.03;8.33;;;;;;;;;;5041986;28;20715;-58
2022/08/14 06:56:07;;;;;;;9.33;8.43;;;;;;;;;;5039057;28;20691;-59
2022/08/14 06:58:33;;;;;;;8.50;7.70;;;;;;;;;;5026859;28;20767;-60
2022/08/14 07:06:29;;;;;;;9.03;8.23;;;;;;;;;;5046518;28;20215;-59
2022/08/14 07:08:55;;;;;;;9.10;8.40;;;;;;;;;;5048743;28;20235;-61
2022/08/14 07:11:21;;;;;;;9.23;8.43;;;;;;;;;;5045996;28;20189;-60
2022/08/14 07:13:47;;;;;;;8.83;8.03;;;;;;;;;;5029400;28;20184;-59
2022/08/14 07:16:13;;;;;;;8.83;8.03;;;;;;;;;;5041191;28;20197;-59
2022/08/14 07:18:40;;;;;;;9.37;8.60;;;;;;;;;;5052889;28;20257;-58
2022/08/14 07:21:07;;;;;;;10.17;8.57;;;;;;;;;;5054616;28;20190;-59
2022/08/14 07:23:33;;;;;;;9.30;8.50;;;;;;;;;;5044766;28;20188;-60
2022/08/14 07:26:00;;;;;;;8.70;8.00;;;;;;;;;;5046451;28;20307;-59
2022/08/14 07:28:28;;;;;;;9.27;8.37;;;;;;;;;;5042445;28;20782;-60
2022/08/14 07:30:56;;;;;;;8.73;7.93;;;;;;;;;;5041718;28;20625;-60
2022/08/14 07:33:23;;;;;;;8.90;8.13;;;;;;;;;;5047905;28;20188;-59
2022/08/14 07:35:49;;;;;;;9.13;8.40;;;;;;;;;;5031719;28;20632;-60
2022/08/14 07:38:19;;;;;;;8.90;8.20;;;;;;;;;;5025091;28;20584;-56
2022/08/14 07:40:45;;;;;;;8.70;7.90;;;;;;;;;;5031588;28;20604;-59
2022/08/14 07:43:12;;;;;;;10.00;9.00;;;;;;;;;;5024172;28;20195;-59
2022/08/14 07:45:39;;;;;;;8.73;8.03;;;;;;;;;;5039017;28;20228;-59
2022/08/14 07:48:05;;;;;;;9.23;8.30;;;;;;;;;;5046635;28;20189;-59
2022/08/14 07:50:32;;;;;;;8.83;8.00;;;;;;;;;;5035513;28;20512;-59
2022/08/14 07:52:58;;;;;;;8.37;7.77;;;;;;;;;;5036824;28;20552;-59
2022/08/14 07:55:25;;;;;;;9.10;8.27;;;;;;;;;;5028398;28;20190;-60
2022/08/14 07:57:51;;;;;;;8.97;8.17;;;;;;;;;;5044839;28;21011;-60
2022/08/14 08:00:19;;;;;;;9.90;7.47;;;;;;;;;;5048610;28;20204;-60
2022/08/14 08:02:46;;;;;;;8.50;7.90;;;;;;;;;;5043097;28;20177;-60
2022/08/14 08:05:13;;;;;;;8.03;7.33;;;;;;;;;;5033815;28;20717;-59
2022/08/14 08:07:40;;;;;;;8.47;7.77;;;;;;;;;;5045324;28;20307;-60
2022/08/14 08:13:04;;;;;;;7.40;6.80;;;;;;;;;;5045852;28;20873;-60
2022/08/14 08:15:31;;;;;;;8.57;7.87;;;;;;;;;;5044886;28;20188;-60
2022/08/14 08:17:59;;;;;;;8.97;8.17;;;;;;;;;;5047073;28;20262;-60
2022/08/14 08:20:27;;;;;;;8.57;7.97;;;;;;;;;;5048867;28;20184;-60
2022/08/14 08:22:57;;;;;;;8.60;7.77;;;;;;;;;;5045237;28;20185;-59
2022/08/14 08:25:27;;;;;;;8.33;7.70;;;;;;;;;;5031398;28;20759;-59
2022/08/14 08:27:54;;;;;;;9.07;7.43;;;;;;;;;;5023386;28;20214;-59
2022/08/14 08:30:21;;;;;;;8.50;7.70;;;;;;;;;;5039986;28;20267;-61
2022/08/14 08:32:48;;;;;;;8.37;7.67;;;;;;;;;;5045513;28;20192;-59
2022/08/14 08:35:19;;;;;;;7.73;7.07;;;;;;;;;;5040579;28;20658;-60
2022/08/14 08:37:45;;;;;;;8.40;7.70;;;;;;;;;;5040553;28;20204;-62
2022/08/14 08:40:25;;;;;;;7.97;7.30;;;;;;;;;;5046521;28;20235;-62
2022/08/14 08:42:51;;;;;;;6.80;6.30;;;;;;;;;;5046444;28;20599;-62
2022/08/14 08:45:18;;;;;;;7.93;7.07;;;;;;;;;;5048195;28;20620;-59
2022/08/14 08:47:44;;;;;;;7.65;7.05;;;;;;;;;;5038965;28;20340;-63
2022/08/14 08:50:18;;;;;;;7.57;7.07;;;;;;;;;;5057518;28;20195;-63
2022/08/14 08:52:52;;;;;;;7.70;7.15;;;;;;;;;;5047187;28;20437;-63
2022/08/14 08:55:44;;;;;;;7.93;7.40;;;;;;;;;;5048522;28;20180;-63
2022/08/14 08:58:12;;;;;;;8.95;7.68;;;;;;;;;;5050594;28;20213;-61
2022/08/14 09:00:39;;;;;;;8.82;6.65;;;;;;;;;;5030019;28;20243;-59
2022/08/14 09:03:18;;;;;;;7.75;7.05;;;;;;;;;;5049075;28;20711;-61
2022/08/14 09:05:54;;;;;;;7.78;6.95;;;;;;;;;;5037263;28;20774;-62
2022/08/14 09:08:24;;;;;;;8.02;7.30;;;;;;;;;;5055520;28;20181;-62
2022/08/14 09:10:50;;;;;;;7.65;7.05;;;;;;;;;;5050280;28;20186;-62
2022/08/14 09:13:26;;;;;;;6.53;5.93;;;;;;;;;;5051515;28;20656;-61
2022/08/14 09:15:53;;;;;;;7.72;6.70;;;;;;;;;;5027705;28;20185;-62
2022/08/14 09:18:21;;;;;;;7.65;6.97;;;;;;;;;;5043811;28;20266;-61
2022/08/14 09:20:48;;;;;;;7.38;6.68;;;;;;;;;;5048706;28;20200;-60
2022/08/14 09:23:14;;;;;;;7.00;6.40;;;;;;;;;;5055193;28;20683;-62
2022/08/14 09:25:43;;;;;;;7.43;6.78;;;;;;;;;;5053758;28;20233;-61
2022/08/14 09:28:09;;;;;;;7.35;6.68;;;;;;;;;;5041372;28;20224;-62
2022/08/14 09:30:38;;;;;;;7.45;6.90;;;;;;;;;;5025909;28;20185;-61
2022/08/14 09:33:04;;;;;;;7.30;6.75;;;;;;;;;;5047546;28;20173;-61
2022/08/14 09:35:49;;;;;;;7.28;6.78;;;;;;;;;;5046682;28;20710;-61
2022/08/14 09:38:33;;;;;;;7.30;6.80;;;;;;;;;;5047600;28;20610;-61
2022/08/14 09:41:18;;;;;;;7.70;7.00;;;;;;;;;;5046661;28;20184;-61
2022/08/14 09:43:59;;;;;;;7.25;6.60;;;;;;;;;;5043728;28;20199;-61
2022/08/14 09:46:26;;;;;;;6.65;5.97;;;;;;;;;;5047905;28;20189;-61
2022/08/14 09:49:03;;;;;;;7.20;6.65;;;;;;;;;;5046637;28;20689;-58
2022/08/14 09:51:30;;;;;;;6.60;6.05;;;;;;;;;;5046605;28;20188;-61
2022/08/14 09:54:00;;;;;;;7.32;6.72;;;;;;;;;;5044273;28;20634;-61
2022/08/14 09:56:26;;;;;;;6.50;6.00;;;;;;;;;;5046535;28;20183;-61
2022/08/14 09:58:52;;;;;;;6.82;6.28;;;;;;;;;;5047531;28;20980;-60
2022/08/14 10:01:19;;;;;;;6.72;6.22;;;;;;;;;;5045030;28;20177;-62
2022/08/14 10:03:51;;;;;;;6.38;5.88;;;;;;;;;;5040561;28;20174;-61
2022/08/14 10:06:19;;;;;;;5.80;5.40;;;;;;;;;;5041346;28;20681;-62
2022/08/14 10:08:53;;;;;;;7.10;6.47;;;;;;;;;;5028152;28;20227;-61
2022/08/14 10:11:21;;;;;;;6.78;6.15;;;;;;;;;;5045188;28;20192;-58
2022/08/14 10:13:48;;;;;;;7.28;6.57;;;;;;;;;;5044307;28;20256;-60
2022/08/14 10:16:15;;;;;;;6.20;5.60;;;;;;;;;;5049361;28;20167;-60
2022/08/14 10:18:41;;;;;;;7.63;7.00;;;;;;;;;;5048555;28;20211;-59
2022/08/14 10:21:09;;;;;;;6.65;6.05;;;;;;;;;;5044472;28;20173;-62
2022/08/14 10:23:43;;;;;;;5.78;5.38;;;;;;;;;;5046190;28;20193;-62
2022/08/14 10:26:09;;;;;;;6.60;5.93;;;;;;;;;;5045380;28;20218;-58
2022/08/14 10:28:41;;;;;;;6.78;5.53;;;;;;;;;;5044743;28;20226;-62
2022/08/14 10:31:16;;;;;;;6.70;6.10;;;;;;;;;;5043046;28;20678;-61
2022/08/14 10:33:42;;;;;;;5.82;5.43;;;;;;;;;;5044372;28;21156;-62
2022/08/14 10:36:08;;;;;;;7.60;6.22;;;;;;;;;;5045614;28;20177;-63
2022/08/14 10:38:35;;;;;;;6.00;5.55;;;;;;;;;;5043593;28;21420;-59
2022/08/14 10:41:12;;;;;;;6.50;6.10;;;;;;;;;;5047193;28;20220;-62
2022/08/14 10:43:39;;;;;;;6.63;6.10;;;;;;;;;;5046412;28;20180;-61
2022/08/14 10:46:11;;;;;;;7.30;6.57;;;;;;;;;;5043031;28;20232;-60
2022/08/14 10:48:37;;;;;;;7.20;6.55;;;;;;;;;;5047517;28;20678;-60
2022/08/14 10:51:03;;;;;;;6.75;6.18;;;;;;;;;;5042749;28;20203;-61
2022/08/14 10:53:34;;;;;;;7.68;7.10;;;;;;;;;;5044815;28;20196;-60
2022/08/14 10:56:02;;;;;;;6.30;5.88;;;;;;;;;;5046702;28;20685;-62
2022/08/14 10:58:31;;;;;;;6.82;6.32;;;;;;;;;;5028485;28;20520;-62
2022/08/14 11:00:59;;;;;;;7.38;6.70;;;;;;;;;;5043698;28;20187;-61
2022/08/14 11:03:36;;;;;;;6.32;5.90;;;;;;;;;;5039942;28;20177;-61
2022/08/14 11:06:13;;;;;;;7.18;6.68;;;;;;;;;;5043861;28;21012;-57
2022/08/14 11:08:39;;;;;;;6.75;6.20;;;;;;;;;;5020541;28;20184;-60
2022/08/14 11:11:05;;;;;;;8.23;7.47;;;;;;;;;;5040643;28;20187;-59
2022/08/14 11:13:32;;;;;;;8.85;7.43;;;;;;;;;;5043867;28;20242;-63
2022/08/14 11:16:01;;;;;;;8.02;6.40;;;;;;;;;;5046838;28;20655;-61
2022/08/14 11:18:28;;;;;;;6.85;6.35;;;;;;;;;;5031742;28;20350;-61
2022/08/14 11:20:58;;;;;;;7.20;6.70;;;;;;;;;;5044716;28;20177;-61
2022/08/14 11:23:28;;;;;;;6.90;6.40;;;;;;;;;;5048192;28;20616;-60
2022/08/14 11:25:56;;;;;;;6.97;6.47;;;;;;;;;;5047975;28;20217;-60
2022/08/14 11:28:24;;;;;;;6.85;6.35;;;;;;;;;;5047012;28;20181;-61
2022/08/14 11:30:50;;;;;;;6.85;6.20;;;;;;;;;;5046503;28;20644;-63
2022/08/14 11:33:16;;;;;;;7.07;6.38;;;;;;;;;;5046381;28;20729;-60
2022/08/14 11:35:47;;;;;;;6.85;6.25;;;;;;;;;;5046005;28;20169;-62
2022/08/14 11:38:13;;;;;;;7.00;6.30;;;;;;;;;;5048019;28;20200;-63
2022/08/14 11:40:39;;;;;;;6.88;6.28;;;;;;;;;;5045499;28;20624;-62
2022/08/14 11:43:06;;;;;;;6.15;5.65;;;;;;;;;;5044174;28;20761;-63
2022/08/14 11:45:33;;;;;;;6.97;6.47;;;;;;;;;;5043055;28;20177;-61
2022/08/14 11:48:00;;;;;;;6.78;6.28;;;;;;;;;;5049288;28;20729;-61
2022/08/14 11:50:32;;;;;;;6.22;5.82;;;;;;;;;;5043909;28;20200;-62
2022/08/14 11:52:59;;;;;;;6.35;5.95;;;;;;;;;;5044889;28;20165;-60
2022/08/14 11:55:25;;;;;;;8.18;6.53;;;;;;;;;;5042759;28;20562;-58
2022/08/14 11:58:02;;;;;;;7.25;6.68;;;;;;;;;;5043194;28;20678;-61
2022/08/14 12:00:29;;;;;;;6.55;6.10;;;;;;;;;;5043302;28;20177;-60
2022/08/14 12:02:56;;;;;;;6.40;5.90;;;;;;;;;;5041673;28;20536;-62
2022/08/14 12:05:37;;;;;;;6.03;5.63;;;;;;;;;;5047717;28;20232;-60
2022/08/14 12:08:06;;;;;;;6.60;6.10;;;;;;;;;;5043061;28;20639;-62
2022/08/14 12:10:33;;;;;;;6.50;6.00;;;;;;;;;;5041356;28;20265;-62
2022/08/14 12:13:09;;;;;;;6.85;6.35;;;;;;;;;;5044726;28;20180;-62
2022/08/14 12:15:36;;;;;;;8.38;7.07;;;;;;;;;;5045453;28;20589;-61
2022/08/14 12:18:03;;;;;;;5.90;5.50;;;;;;;;;;5045135;28;20216;-61
2022/08/14 12:20:35;;;;;;;7.25;6.70;;;;;;;;;;5040589;28;20248;-62
2022/08/14 12:23:03;;;;;;;8.65;6.20;;;;;;;;;;5038137;28;20178;-62
2022/08/14 12:25:29;;;;;;;6.47;5.78;;;;;;;;;;5043087;28;20221;-61
2022/08/14 12:27:56;;;;;;;6.45;5.90;;;;;;;;;;5044344;28;20277;-62
2022/08/14 12:30:39;;;;;;;5.90;5.53;;;;;;;;;;5045198;28;20192;-61
2022/08/14 12:33:07;;;;;;;6.38;5.97;;;;;;;;;;5044818;28;20642;-61
2022/08/14 12:35:41;;;;;;;6.32;5.93;;;;;;;;;;5042476;28;20173;-62
2022/08/14 12:38:09;;;;;;;6.70;6.30;;;;;;;;;;5042869;28;20205;-60
2022/08/14 12:40:45;;;;;;;7.10;6.55;;;;;;;;;;5047248;28;20169;-60
2022/08/14 12:43:11;;;;;;;9.00;6.55;;;;;;;;;;5037764;28;20185;-62
2022/08/14 12:45:37;;;;;;;7.00;6.40;;;;;;;;;;5039690;28;20174;-60
2022/08/14 12:48:04;;;;;;;5.95;5.55;;;;;;;;;;5043225;28;20184;-61
2022/08/14 12:50:34;;;;;;;7.07;6.47;;;;;;;;;;5027220;28;20187;-61
2022/08/14 12:53:00;;;;;;;5.78;5.38;;;;;;;;;;5041196;28;20187;-61
2022/08/14 12:55:26;;;;;;;7.10;6.00;;;;;;;;;;5043727;28;20206;-61
2022/08/14 12:57:54;;;;;;;6.55;5.70;;;;;;;;;;5044137;28;20694;-60
2022/08/14 13:00:21;;;;;;;6.47;5.70;;;;;;;;;;5026999;28;20178;-60
2022/08/14 13:02:50;;;;;;;5.28;4.78;;;;;;;;;;5044958;28;20192;-60
2022/08/14 13:05:17;;;;;;;7.28;6.30;;;;;;;;;;5045120;28;20258;-60
2022/08/14 13:07:43;;;;;;;6.25;5.75;;;;;;;;;;5044274;28;20648;-60
2022/08/14 13:10:11;;;;;;;6.60;6.10;;;;;;;;;;5048406;28;20181;-60
2022/08/14 13:12:38;;;;;;;6.03;5.63;;;;;;;;;;5044883;28;20196;-60
2022/08/14 13:15:06;;;;;;;5.90;5.50;;;;;;;;;;5048028;28;20859;-60
2022/08/14 13:17:36;;;;;;;5.45;5.07;;;;;;;;;;5050423;28;20208;-60
2022/08/14 13:20:02;;;;;;;6.50;5.60;;;;;;;;;;5048514;28;20177;-58
2022/08/14 13:22:29;;;;;;;5.60;5.20;;;;;;;;;;5026788;28;20181;-60
2022/08/14 13:24:55;;;;;;;6.10;5.70;;;;;;;;;;5044668;28;20177;-60
2022/08/14 13:27:24;;;;;;;6.53;5.90;;;;;;;;;;5048599;28;20230;-59
2022/08/14 13:29:51;;;;;;;6.15;5.63;;;;;;;;;;5043605;28;20280;-59
2022/08/14 13:32:18;;;;;;;5.80;5.40;;;;;;;;;;5024946;28;20190;-59
2022/08/14 13:34:47;;;;;;;6.72;5.72;;;;;;;;;;5041059;28;20659;-60
2022/08/14 13:37:17;;;;;;;6.57;6.03;;;;;;;;;;5045402;28;20711;-59
2022/08/14 13:39:57;;;;;;;6.40;5.75;;;;;;;;;;5045487;28;20629;-60
2022/08/14 13:42:26;;;;;;;6.00;5.43;;;;;;;;;;5044252;28;20686;-59
2022/08/14 13:44:53;;;;;;;6.32;5.82;;;;;;;;;;5042075;28;20181;-58
2022/08/14 13:47:23;;;;;;;6.30;5.68;;;;;;;;;;5026602;28;20181;-58
2022/08/14 13:49:50;;;;;;;16.10;6.30;;;;;;;;;;5044624;28;20957;-58
2022/08/14 13:52:18;;;;;;;8.82;6.13;;;;;;;;;;5042219;28;20188;-58
2022/08/14 13:54:45;;;;;;;6.25;5.80;;;;;;;;;;5046272;28;21173;-59
2022/08/14 13:57:12;;;;;;;7.28;6.55;;;;;;;;;;5042625;28;20600;-60
2022/08/14 13:59:43;;;;;;;7.25;6.75;;;;;;;;;;5045441;28;20230;-58
2022/08/14 14:02:09;;;;;;;6.88;6.47;;;;;;;;;;5044174;28;20246;-58
2022/08/14 14:04:39;;;;;;;5.45;5.10;;;;;;;;;;5044354;28;20204;-58
2022/08/14 14:07:09;;;;;;;5.30;5.00;;;;;;;;;;5043956;28;20177;-59
2022/08/14 14:09:37;;;;;;;6.18;5.65;;;;;;;;;;5042299;28;20175;-60
2022/08/14 14:12:06;;;;;;;5.70;5.30;;;;;;;;;;5043899;28;20618;-59
2022/08/14 14:14:33;;;;;;;6.78;6.18;;;;;;;;;;5046562;28;20654;-61
2022/08/14 14:16:59;;;;;;;5.47;5.07;;;;;;;;;;5047244;28;20681;-61
2022/08/14 14:19:26;;;;;;;5.65;5.25;;;;;;;;;;5046764;28;20185;-62
2022/08/14 14:21:54;;;;;;;6.20;5.68;;;;;;;;;;5043751;28;20586;-60
2022/08/14 14:24:20;;;;;;;6.18;5.78;;;;;;;;;;5042191;28;20271;-61
2022/08/14 14:26:47;;;;;;;5.85;5.45;;;;;;;;;;5050740;28;20274;-60
2022/08/14 14:29:13;;;;;;;5.93;5.53;;;;;;;;;;5039701;28;20235;-59
2022/08/14 14:31:40;;;;;;;5.82;5.32;;;;;;;;;;5049058;28;20686;-60
2022/08/14 14:34:13;;;;;;;6.00;5.45;;;;;;;;;;5043957;28;20284;-58
2022/08/14 14:36:42;;;;;;;6.55;5.05;;;;;;;;;;5035554;28;20180;-57
2022/08/14 14:39:09;;;;;;;5.95;5.22;;;;;;;;;;5041152;28;20173;-57
2022/08/14 14:41:40;;;;;;;5.57;5.18;;;;;;;;;;5025181;28;20169;-59
2022/08/14 14:44:07;;;;;;;5.35;4.85;;;;;;;;;;5044719;28;20184;-59
2022/08/14 14:46:35;;;;;;;5.70;5.20;;;;;;;;;;5041451;28;20303;-59
2022/08/14 14:49:01;;;;;;;6.35;5.72;;;;;;;;;;5045052;28;20181;-58
2022/08/14 14:51:28;;;;;;;5.95;5.43;;;;;;;;;;5037960;28;20691;-59
2022/08/14 14:53:54;;;;;;;5.32;4.93;;;;;;;;;;5048088;28;20208;-58
2022/08/14 14:56:20;;;;;;;5.40;5.00;;;;;;;;;;5045206;28;20185;-59
2022/08/14 14:58:46;;;;;;;6.03;5.22;;;;;;;;;;5039663;28;20204;-59
2022/08/14 15:01:22;;;;;;;5.70;5.30;;;;;;;;;;5045603;28;20262;-58
2022/08/14 15:03:48;;;;;;;5.95;5.55;;;;;;;;;;5038673;28;20563;-58
2022/08/14 15:06:14;;;;;;;6.65;4.65;;;;;;;;;;5042442;28;20197;-57
2022/08/14 15:08:40;;;;;;;6.38;5.72;;;;;;;;;;5040777;28;20631;-58
2022/08/14 15:11:07;;;;;;;5.90;5.28;;;;;;;;;;5047695;28;20170;-57